Time;durP1;ratioP1;P1;durP2;ratioP2;P2;SDS_P1;SDS_P2;PMS_P1;PMS_P2;Temp;Humidity;BMP_temperature;BMP_pressure;BME280_temperature;BME280_humidity;BME280_pressure;Samples;Min_cycle;Max_cycle;Signal;HPM_P1;HPM_P2
2022/12/08 00:00:42;;;;;;;65.75;39.22;;;;;;;5.75;75.98;94462.91;4179354;28;20091;-55
2022/12/08 00:02:43;;;;;;;64.55;38.30;;;;;;;5.49;76.53;94470.41;4173689;28;20600;-55
2022/12/08 00:09:32;;;;;;;60.00;35.95;;;;;;;5.18;78.80;94475.63;4178657;28;20151;-56
2022/12/08 00:11:43;;;;;;;70.85;37.33;;;;;;;5.37;78.97;94474.88;4179545;28;20524;-54
2022/12/08 00:13:45;;;;;;;71.28;36.22;;;;;;;5.52;77.65;94472.72;4176928;28;20111;-53
2022/12/08 00:15:46;;;;;;;63.70;36.60;;;;;;;5.58;77.25;94485.19;4179026;28;20106;-54
2022/12/08 00:17:48;;;;;;;60.35;36.30;;;;;;;5.55;76.78;94495.84;4169557;28;20140;-54
2022/12/08 00:19:50;;;;;;;65.25;33.92;;;;;;;5.61;77.05;94495.28;4149466;28;20054;-53
2022/12/08 00:21:52;;;;;;;58.28;35.80;;;;;;;5.54;76.50;94489.00;4151746;28;20056;-55
2022/12/08 00:23:55;;;;;;;56.97;34.00;;;;;;;5.50;76.83;94485.84;4172246;28;20076;-55
2022/12/08 00:26:01;;;;;;;55.83;32.00;;;;;;;5.54;77.17;94496.78;4162661;28;20037;-55
2022/12/08 00:28:02;;;;;;;60.05;33.53;;;;;;;5.63;76.79;94490.78;4162336;28;20447;-56
2022/12/08 00:30:05;;;;;;;63.30;34.25;;;;;;;5.70;77.22;94491.91;4160978;28;20589;-55
2022/12/08 00:32:07;;;;;;;54.85;31.38;;;;;;;5.77;76.54;94493.97;4160997;28;20143;-55
2022/12/08 00:34:11;;;;;;;52.75;31.17;;;;;;;5.72;76.32;94505.59;4161003;28;20057;-56
2022/12/08 00:36:13;;;;;;;52.05;30.73;;;;;;;5.75;76.16;94497.50;4167962;28;20080;-57
2022/12/08 00:38:15;;;;;;;53.03;29.13;;;;;;;5.82;76.08;94497.78;4159179;28;20138;-58
2022/12/08 00:40:17;;;;;;;46.63;28.35;;;;;;;5.87;75.92;94497.38;4161272;28;20110;-56
2022/12/08 00:42:18;;;;;;;51.08;27.60;;;;;;;5.88;75.66;94499.03;4162358;28;20077;-56
2022/12/08 00:44:20;;;;;;;47.75;26.88;;;;;;;5.91;76.02;94502.19;4156839;28;20419;-59
2022/12/08 00:46:22;;;;;;;53.63;28.73;;;;;;;5.92;75.23;94503.03;4168734;28;20187;-53
2022/12/08 00:48:24;;;;;;;47.20;27.70;;;;;;;5.94;75.53;94501.94;4162016;28;20148;-54
2022/12/08 00:50:25;;;;;;;54.70;28.48;;;;;;;5.85;75.25;94494.94;4161528;28;20075;-57
2022/12/08 00:52:27;;;;;;;48.08;27.63;;;;;;;5.72;75.18;94502.16;4165475;28;20172;-54
2022/12/08 00:54:29;;;;;;;55.28;27.45;;;;;;;5.73;75.88;94504.63;4146022;28;20154;-53
2022/12/08 00:56:31;;;;;;;51.88;29.45;;;;;;;5.75;75.81;94505.31;4145951;28;20042;-57
2022/12/08 00:58:32;;;;;;;49.58;28.73;;;;;;;5.77;75.81;94501.78;4153565;28;20049;-57
2022/12/08 01:00:34;;;;;;;50.30;29.80;;;;;;;5.82;75.45;94499.56;4149748;28;20470;-55
2022/12/08 01:02:36;;;;;;;48.00;26.73;;;;;;;5.85;75.50;94488.91;4149101;28;20057;-56
2022/12/08 01:04:38;;;;;;;47.45;26.85;;;;;;;5.89;75.88;94487.66;4161826;28;20111;-55
2022/12/08 01:06:40;;;;;;;50.72;26.55;;;;;;;5.99;75.61;94488.53;4157123;28;20068;-55
2022/12/08 01:08:42;;;;;;;45.72;25.90;;;;;;;6.04;75.09;94486.34;4161562;28;20053;-56
2022/12/08 01:10:44;;;;;;;44.67;25.83;;;;;;;6.07;74.34;94491.28;4148627;28;20068;-58
2022/12/08 01:12:45;;;;;;;48.15;27.00;;;;;;;6.08;74.71;94487.72;4148614;28;20046;-57
2022/12/08 01:14:47;;;;;;;41.17;25.48;;;;;;;6.13;74.92;94489.91;4153520;28;20053;-52
2022/12/08 01:16:49;;;;;;;43.45;26.48;;;;;;;6.11;74.72;94491.84;4164144;28;20052;-55
2022/12/08 01:18:51;;;;;;;45.08;25.35;;;;;;;6.05;74.49;94493.19;4176484;28;20052;-55
2022/12/08 01:20:52;;;;;;;42.78;25.52;;;;;;;5.99;74.17;94495.53;4161144;28;20056;-52
2022/12/08 01:22:54;;;;;;;43.65;25.35;;;;;;;5.98;74.52;94488.66;4167543;28;20049;-53
2022/12/08 01:24:56;;;;;;;44.15;25.95;;;;;;;6.02;74.75;94493.47;4157393;28;20049;-54
2022/12/08 01:26:57;;;;;;;44.97;25.05;;;;;;;6.08;74.53;94486.91;4158504;28;20540;-55
2022/12/08 01:28:59;;;;;;;46.15;25.33;;;;;;;6.08;74.44;94492.09;4175835;28;20166;-57
2022/12/08 01:31:01;;;;;;;47.05;26.00;;;;;;;6.13;74.27;94479.50;4178039;28;20132;-54
2022/12/08 01:33:03;;;;;;;42.97;26.10;;;;;;;6.09;74.20;94478.16;4167746;28;20084;-55
2022/12/08 01:35:05;;;;;;;43.50;24.80;;;;;;;6.10;74.28;94480.59;4160963;28;20131;-54
2022/12/08 01:37:06;;;;;;;39.67;24.40;;;;;;;6.09;74.20;94481.56;4173679;28;20057;-57
2022/12/08 01:39:16;;;;;;;43.70;24.00;;;;;;;6.05;74.63;94482.81;4167801;28;20075;-57
2022/12/08 01:41:22;;;;;;;41.83;25.70;;;;;;;6.04;74.58;94480.31;4169013;28;20398;-55
2022/12/08 01:43:24;;;;;;;38.17;23.52;;;;;;;6.03;74.19;94476.91;4173475;28;20558;-53
2022/12/08 01:45:30;;;;;;;44.78;25.00;;;;;;;6.03;74.84;94470.91;4172660;28;20069;-55
2022/12/08 01:47:39;;;;;;;45.97;25.05;;;;;;;6.03;74.61;94465.69;4167803;28;20615;-54
2022/12/08 01:49:42;;;;;;;38.65;24.48;;;;;;;6.03;73.99;94463.91;4174725;28;20057;-53
2022/12/08 01:51:56;;;;;;;45.45;24.90;;;;;;;6.00;74.30;94459.00;4171032;28;20270;-56
2022/12/08 01:53:58;;;;;;;36.58;22.15;;;;;;;5.92;74.48;94464.03;4149749;28;20050;-56
2022/12/08 01:56:07;;;;;;;43.08;23.98;;;;;;;5.87;75.11;94463.59;4173805;28;20672;-52
2022/12/08 01:58:30;;;;;;;38.88;22.55;;;;;;;5.91;74.97;94459.75;4177098;28;20075;-57
2022/12/08 02:00:31;;;;;;;44.17;23.58;;;;;;;5.90;74.56;94453.75;4175407;28;20060;-53
2022/12/08 02:02:58;;;;;;;40.13;23.10;;;;;;;5.93;74.63;94458.66;4176102;28;20140;-51
2022/12/08 02:05:00;;;;;;;35.25;21.45;;;;;;;5.79;74.51;94463.47;4171861;28;20460;-51
2022/12/08 02:07:03;;;;;;;35.80;21.77;;;;;;;5.77;75.30;94466.19;4174545;28;20122;-55
2022/12/08 02:09:08;;;;;;;36.28;21.48;;;;;;;5.75;75.09;94466.31;4151154;28;20422;-57
2022/12/08 02:11:11;;;;;;;37.60;21.50;;;;;;;5.80;74.92;94463.31;4175920;28;20503;-54
2022/12/08 02:13:15;;;;;;;33.78;21.27;;;;;;;5.85;74.82;94462.91;4161168;28;20045;-51
2022/12/08 02:15:16;;;;;;;;;;;;;;;5.84;74.28;94456.06;4160646;28;20053;-54
2022/12/08 02:17:34;;;;;;;33.95;20.70;;;;;;;5.82;74.94;94458.00;4159774;28;20015;-53
2022/12/08 02:19:56;;;;;;;36.63;20.98;;;;;;;5.62;74.62;94451.97;4172357;28;20048;-55
2022/12/08 02:22:22;;;;;;;32.80;19.85;;;;;;;5.60;75.91;94452.09;4167617;28;20474;-54
2022/12/08 02:24:27;;;;;;;36.83;20.48;;;;;;;5.63;75.52;94451.81;4148866;28;20049;-53
2022/12/08 02:26:52;;;;;;;32.63;20.15;;;;;;;5.66;74.96;94443.75;4160685;28;20076;-55
2022/12/08 02:28:53;;;;;;;36.03;19.20;;;;;;;5.70;75.39;94457.28;4154974;28;20053;-54
2022/12/08 02:31:10;;;;;;;34.15;19.48;;;;;;;5.70;74.46;94467.66;4158714;28;20085;-57
2022/12/08 02:34:02;;;;;;;33.75;19.90;;;;;;;5.74;74.93;94456.91;4137817;28;20088;-56
2022/12/08 02:36:07;;;;;;;30.75;18.70;;;;;;;5.77;74.72;94454.97;4125226;28;20408;-57
2022/12/08 02:38:25;;;;;;;32.30;18.65;;;;;;;5.79;74.65;94455.69;4142713;28;20045;-57
2022/12/08 02:40:32;;;;;;;36.47;21.33;;;;;;;5.74;73.94;94451.69;4157404;28;20049;-53
2022/12/08 02:42:59;;;;;;;37.58;19.42;;;;;;;5.44;75.36;94447.41;4128746;28;20053;-55
2022/12/08 02:45:18;;;;;;;35.53;19.67;;;;;;;5.37;76.00;94446.28;4154107;28;20145;-56
2022/12/08 02:47:21;;;;;;;34.33;19.40;;;;;;;5.25;75.97;94448.19;4138187;28;20518;-56
2022/12/08 02:49:32;;;;;;;34.95;20.25;;;;;;;5.24;76.78;94449.13;4152028;28;20057;-54
2022/12/08 02:51:34;;;;;;;35.70;21.17;;;;;;;5.31;76.45;94455.47;4142655;28;20076;-52
2022/12/08 02:53:36;;;;;;;36.65;20.77;;;;;;;5.38;76.12;94449.69;4142172;28;20088;-56
2022/12/08 02:55:59;;;;;;;34.85;20.73;;;;;;;5.45;76.15;94451.66;4139991;28;20129;-55
2022/12/08 02:58:27;;;;;;;36.58;20.95;;;;;;;5.53;75.45;94443.19;4148572;28;20046;-58
2022/12/08 03:00:37;;;;;;;37.63;21.00;;;;;;;5.50;74.99;94446.84;4137632;28;20150;-56
2022/12/08 03:02:47;;;;;;;36.85;19.83;;;;;;;5.32;76.22;94451.88;4138856;28;20474;-55
2022/12/08 03:04:57;;;;;;;35.08;20.52;;;;;;;5.32;76.30;94449.28;4166903;28;20128;-52
2022/12/08 03:07:07;;;;;;;35.67;21.30;;;;;;;5.38;75.73;94447.94;4171778;28;20084;-56
2022/12/08 03:09:16;;;;;;;36.80;20.42;;;;;;;5.42;75.38;94448.47;4178637;28;20079;-60
2022/12/08 03:12:05;;;;;;;40.33;20.13;;;;;;;5.45;75.29;94454.25;4177052;28;20057;-55
2022/12/08 03:14:09;;;;;;;33.45;21.30;;;;;;;5.48;75.21;94443.56;4174604;28;20044;-55
2022/12/08 03:16:15;;;;;;;36.47;19.70;;;;;;;5.44;74.83;94443.97;4174102;28;20053;-55
2022/12/08 03:18:19;;;;;;;33.70;21.40;;;;;;;5.46;75.17;94447.25;4158177;28;20049;-53
2022/12/08 03:20:24;;;;;;;40.42;21.27;;;;;;;5.50;75.32;94446.03;4159356;28;20061;-56
2022/12/08 03:22:26;;;;;;;37.15;20.92;;;;;;;5.47;75.03;94441.13;4162968;28;20061;-53
2022/12/08 03:24:31;;;;;;;35.42;22.27;;;;;;;5.46;75.01;94442.06;4148175;28;20123;-53
2022/12/08 03:26:40;;;;;;;33.95;20.60;;;;;;;5.51;74.95;94437.31;4151355;28;20156;-55
2022/12/08 03:28:42;;;;;;;38.00;21.60;;;;;;;5.55;74.69;94441.28;4173470;28;20088;-57
2022/12/08 03:30:45;;;;;;;32.72;20.10;;;;;;;5.58;74.71;94443.59;4171634;28;20053;-53
2022/12/08 03:32:51;;;;;;;34.57;21.13;;;;;;;5.60;74.72;94448.66;4169658;28;20128;-55
2022/12/08 03:34:55;;;;;;;36.92;21.70;;;;;;;5.63;74.25;94451.81;4169586;28;20049;-58
2022/12/08 03:36:59;;;;;;;35.80;21.42;;;;;;;5.61;74.39;94443.31;4154907;28;20112;-57
2022/12/08 03:39:01;;;;;;;38.47;22.15;;;;;;;5.22;74.95;94443.25;4130625;28;20530;-56
2022/12/08 03:41:18;;;;;;;35.40;20.70;;;;;;;5.14;75.63;94450.88;4160557;28;20139;-56
2022/12/08 03:43:19;;;;;;;35.22;22.15;;;;;;;5.16;76.27;94450.75;4160846;28;20506;-53
2022/12/08 03:45:21;;;;;;;41.63;22.80;;;;;;;5.24;76.61;94456.09;4153079;28;20062;-51
2022/12/08 03:47:23;;;;;;;40.35;22.95;;;;;;;5.33;76.41;94450.94;4157911;28;20463;-55
2022/12/08 03:49:24;;;;;;;34.15;21.27;;;;;;;5.39;75.81;94448.75;4157328;28;20049;-53
2022/12/08 03:51:26;;;;;;;33.75;19.00;;;;;;;5.41;75.24;94457.25;4161247;28;20140;-53
2022/12/08 03:53:28;;;;;;;33.22;19.45;;;;;;;5.26;75.32;94449.81;4147969;28;20458;-51
2022/12/08 03:55:29;;;;;;;32.10;19.85;;;;;;;5.22;75.74;94458.81;4159352;28;20072;-50
2022/12/08 03:57:31;;;;;;;34.45;20.27;;;;;;;5.22;75.94;94456.22;4163162;28;20108;-53
2022/12/08 03:59:33;;;;;;;36.28;20.25;;;;;;;5.31;75.76;94462.41;4149561;28;20414;-50
2022/12/08 04:01:34;;;;;;;35.97;22.25;;;;;;;5.38;76.07;94460.94;4163225;28;20052;-50
2022/12/08 04:03:36;;;;;;;34.25;20.35;;;;;;;5.45;75.28;94453.44;4168086;28;20450;-48
2022/12/08 04:05:38;;;;;;;31.45;18.95;;;;;;;5.44;75.44;94451.78;4179162;28;20450;-51
2022/12/08 04:07:40;;;;;;;37.78;20.90;;;;;;;5.47;75.35;94456.72;4165821;28;20137;-52
2022/12/08 04:09:41;;;;;;;34.38;20.95;;;;;;;5.48;74.60;94460.94;4176604;28;20457;-50
2022/12/08 04:11:43;;;;;;;41.28;21.17;;;;;;;5.47;74.37;94464.50;4173006;28;20202;-51
2022/12/08 04:13:45;;;;;;;31.42;19.55;;;;;;;5.51;74.90;94468.50;4170807;28;20072;-52
2022/12/08 04:15:47;;;;;;;37.38;20.98;;;;;;;5.44;74.44;94460.41;4152830;28;20057;-47
2022/12/08 04:17:48;;;;;;;36.90;21.00;;;;;;;5.49;75.09;94468.63;4159207;28;20463;-53
2022/12/08 04:19:50;;;;;;;35.33;20.48;;;;;;;5.56;75.15;94466.28;4159292;28;20575;-56
2022/12/08 04:21:52;;;;;;;33.22;20.30;;;;;;;5.60;74.98;94467.69;4167103;28;20076;-50
2022/12/08 04:23:54;;;;;;;37.35;21.08;;;;;;;5.50;74.79;94462.44;4176252;28;20052;-49
2022/12/08 04:26:02;;;;;;;33.95;20.65;;;;;;;5.46;75.03;94458.50;4162168;28;20072;-52
2022/12/08 04:28:04;;;;;;;35.78;21.52;;;;;;;5.49;74.75;94454.81;4162966;28;20061;-48
2022/12/08 04:30:08;;;;;;;34.58;21.08;;;;;;;5.54;74.99;94465.59;4160958;28;20057;-51
2022/12/08 04:32:10;;;;;;;37.08;20.83;;;;;;;5.62;74.15;94463.16;4163038;28;20049;-51
2022/12/08 04:34:12;;;;;;;36.75;21.00;;;;;;;5.61;74.32;94458.09;4162426;28;20081;-44
2022/12/08 04:36:13;;;;;;;34.33;21.38;;;;;;;5.61;74.56;94455.50;4163044;28;20061;-49
2022/12/08 04:38:16;;;;;;;35.88;20.42;;;;;;;5.62;74.91;94465.75;4161781;28;20149;-49
2022/12/08 04:40:17;;;;;;;31.77;19.45;;;;;;;5.69;74.03;94460.84;4163509;28;20126;-53
2022/12/08 04:42:19;;;;;;;36.42;19.95;;;;;;;5.74;74.66;94456.91;4174676;28;20116;-54
2022/12/08 04:44:21;;;;;;;34.95;20.58;;;;;;;5.43;74.10;94460.53;4161925;28;20143;-48
2022/12/08 04:46:23;;;;;;;31.42;20.20;;;;;;;5.31;75.48;94460.66;4161810;28;20139;-49
2022/12/08 04:48:24;;;;;;;38.75;21.23;;;;;;;5.25;75.56;94457.75;4151360;28;20104;-55
2022/12/08 04:50:26;;;;;;;30.98;21.17;;;;;;;5.26;75.77;94469.78;4161233;28;20120;-53
2022/12/08 04:52:28;;;;;;;33.72;21.98;;;;;;;5.26;75.97;94465.41;4158396;28;20111;-54
2022/12/08 04:54:30;;;;;;;35.47;20.45;;;;;;;4.81;76.80;94467.56;4158946;28;20077;-54
2022/12/08 04:56:32;;;;;;;42.72;23.63;;;;;;;4.88;78.05;94482.50;4162540;28;20525;-51
2022/12/08 04:58:33;;;;;;;41.28;23.02;;;;;;;5.04;77.30;94481.19;4157777;28;20376;-49
2022/12/08 05:00:35;;;;;;;37.53;22.20;;;;;;;5.18;76.92;94478.22;4152805;28;20267;-52
2022/12/08 05:02:37;;;;;;;36.63;21.13;;;;;;;5.07;76.68;94470.53;4161428;28;20358;-49
2022/12/08 05:04:39;;;;;;;36.85;22.10;;;;;;;5.11;77.17;94471.91;4166470;28;20065;-55
2022/12/08 05:06:40;;;;;;;35.17;21.42;;;;;;;5.18;77.30;94469.63;4159726;28;20049;-53
2022/12/08 05:08:42;;;;;;;35.40;20.88;;;;;;;5.30;77.15;94473.75;4155015;28;20188;-55
2022/12/08 05:10:44;;;;;;;35.70;21.55;;;;;;;5.37;76.27;94484.44;4160091;28;20052;-50
2022/12/08 05:12:46;;;;;;;34.85;22.00;;;;;;;5.34;75.41;94486.34;4174844;28;20106;-54
2022/12/08 05:14:47;;;;;;;34.33;22.42;;;;;;;5.19;75.63;94490.28;4151237;28;20484;-51
2022/12/08 05:16:49;;;;;;;40.22;23.92;;;;;;;5.03;76.80;94488.13;4163584;28;20061;-53
2022/12/08 05:18:51;;;;;;;35.67;23.10;;;;;;;5.06;77.07;94492.28;4161062;28;20056;-52
2022/12/08 05:20:52;;;;;;;36.47;22.95;;;;;;;5.16;77.23;94482.72;4153428;28;20046;-52
2022/12/08 05:22:54;;;;;;;34.67;22.33;;;;;;;5.24;77.14;94485.50;4165314;28;20452;-52
2022/12/08 05:24:56;;;;;;;44.45;25.35;;;;;;;5.32;76.07;94490.84;4162209;28;20118;-53
2022/12/08 05:26:57;;;;;;;36.83;22.98;;;;;;;5.40;76.20;94491.97;4162372;28;20053;-53
2022/12/08 05:28:59;;;;;;;39.45;23.83;;;;;;;5.37;75.46;94507.81;4148300;28;20058;-52
2022/12/08 05:31:01;;;;;;;42.40;25.38;;;;;;;5.25;75.41;94505.31;4159171;28;20132;-55
2022/12/08 05:33:03;;;;;;;41.65;25.95;;;;;;;5.06;76.72;94492.28;4153516;28;20124;-50
2022/12/08 05:35:05;;;;;;;44.83;26.05;;;;;;;4.99;77.23;94496.31;4162339;28;20136;-50
2022/12/08 05:37:07;;;;;;;45.47;28.13;;;;;;;4.90;77.32;94509.16;4163718;28;20137;-52
2022/12/08 05:39:12;;;;;;;44.80;27.98;;;;;;;4.90;77.60;94511.75;4146801;28;20120;-52
2022/12/08 05:41:16;;;;;;;44.42;27.90;;;;;;;4.91;76.82;94503.00;4153967;28;20203;-51
2022/12/08 05:43:18;;;;;;;51.10;30.20;;;;;;;4.88;77.11;94503.25;4172000;28;20100;-53
2022/12/08 05:45:20;;;;;;;53.88;29.60;;;;;;;4.93;77.62;94502.88;4159896;28;20049;-53
2022/12/08 05:47:21;;;;;;;49.47;27.98;;;;;;;5.04;77.11;94512.34;4145207;28;20116;-51
2022/12/08 05:49:23;;;;;;;51.45;29.30;;;;;;;5.17;77.06;94515.53;4144630;28;20463;-51
2022/12/08 05:51:25;;;;;;;50.33;29.77;;;;;;;5.26;76.28;94508.75;4144719;28;20083;-53
2022/12/08 05:53:27;;;;;;;48.58;29.08;;;;;;;5.31;75.52;94511.75;4158907;28;20053;-56
2022/12/08 05:55:28;;;;;;;50.90;30.27;;;;;;;5.30;75.08;94510.94;4166324;28;20136;-53
2022/12/08 05:57:30;;;;;;;58.75;32.67;;;;;;;5.30;75.01;94512.72;4176871;28;20049;-53
2022/12/08 05:59:32;;;;;;;50.78;31.52;;;;;;;5.33;75.58;94507.25;4175581;28;20436;-54
2022/12/08 06:01:34;;;;;;;50.47;32.47;;;;;;;5.37;74.80;94513.84;4174829;28;20060;-51
2022/12/08 06:03:36;;;;;;;52.22;33.08;;;;;;;5.40;75.12;94517.94;4176882;28;20132;-51
2022/12/08 06:05:39;;;;;;;64.68;34.10;;;;;;;5.43;74.20;94520.28;4177116;28;20056;-50
2022/12/08 06:07:41;;;;;;;56.17;33.60;;;;;;;5.34;74.53;94522.72;4165431;28;20411;-54
2022/12/08 06:09:43;;;;;;;55.35;33.28;;;;;;;5.25;75.03;94523.50;4172360;28;20049;-53
2022/12/08 06:11:46;;;;;;;70.63;43.42;;;;;;;4.45;77.50;94532.78;4165829;28;20859;-53
2022/12/08 06:13:48;;;;;;;76.43;45.47;;;;;;;4.25;78.05;94525.78;4175426;28;20127;-50
2022/12/08 06:15:50;;;;;;;64.55;42.22;;;;;;;4.38;79.27;94520.44;4168348;28;20049;-52
2022/12/08 06:17:51;;;;;;;64.03;39.95;;;;;;;4.59;78.26;94530.81;4171848;28;20057;-54
2022/12/08 06:19:53;;;;;;;59.63;38.75;;;;;;;4.74;77.70;94523.53;4168142;28;20486;-53
2022/12/08 06:21:55;;;;;;;63.13;36.53;;;;;;;4.87;76.93;94531.94;4176637;28;20053;-53
2022/12/08 06:23:56;;;;;;;61.35;36.35;;;;;;;4.97;76.64;94526.78;4174020;28;20075;-54
2022/12/08 06:26:06;;;;;;;61.83;36.28;;;;;;;5.06;76.61;94534.63;4160152;28;20076;-55
2022/12/08 06:28:08;;;;;;;57.13;36.35;;;;;;;5.15;75.84;94535.63;4161292;28;20153;-58
2022/12/08 06:30:09;;;;;;;56.35;34.65;;;;;;;5.16;75.94;94532.06;4159889;28;20041;-54
2022/12/08 06:32:11;;;;;;;60.38;35.45;;;;;;;5.12;75.87;94530.69;4160572;28;20118;-56
2022/12/08 06:34:13;;;;;;;57.33;35.42;;;;;;;5.20;76.10;94530.84;4155638;28;20102;-56
2022/12/08 06:36:17;;;;;;;68.10;37.25;;;;;;;5.22;75.62;94523.75;4167714;28;20076;-55
2022/12/08 06:38:18;;;;;;;;;;;;;;;5.30;75.31;94523.94;4156013;28;20058;-59
2022/12/08 06:40:20;;;;;;;57.47;34.45;;;;;;;5.42;75.76;94526.41;4162680;28;20371;-58
2022/12/08 06:44:42;;;;;;;45.58;32.40;;;;;;;5.51;75.19;94529.06;4155278;28;20081;-54
2022/12/08 06:46:44;;;;;;;54.85;32.97;;;;;;;5.59;75.02;94527.56;4167664;28;20060;-54
2022/12/08 06:48:46;;;;;;;50.33;31.48;;;;;;;5.68;74.35;94516.41;4164623;28;20437;-54
2022/12/08 06:50:47;;;;;;;46.83;31.38;;;;;;;5.77;74.42;94517.38;4160009;28;20052;-57
2022/12/08 06:52:49;;;;;;;50.78;31.67;;;;;;;5.84;73.90;94521.88;4157815;28;20104;-54
2022/12/08 06:55:05;;;;;;;54.17;31.52;;;;;;;5.88;73.43;94509.44;4167750;28;20068;-57
2022/12/08 06:57:07;;;;;;;48.50;29.95;;;;;;;5.94;73.61;94517.56;4154227;28;20085;-57
2022/12/08 06:59:09;;;;;;;49.30;29.98;;;;;;;6.01;73.55;94517.84;4152425;28;20100;-55
2022/12/08 07:01:12;;;;;;;48.25;30.92;;;;;;;6.05;72.95;94521.81;4153920;28;20156;-55
2022/12/08 07:03:14;;;;;;;57.70;33.05;;;;;;;5.82;72.96;94517.78;4153208;28;20486;-54
2022/12/08 07:05:16;;;;;;;51.63;31.00;;;;;;;5.68;73.59;94527.59;4157003;28;20089;-58
2022/12/08 07:07:17;;;;;;;60.20;32.63;;;;;;;5.74;74.42;94531.44;4158178;28;20088;-58
2022/12/08 07:09:19;;;;;;;52.30;32.13;;;;;;;5.73;74.13;94548.81;4162107;28;20075;-58
2022/12/08 07:11:21;;;;;;;56.08;32.05;;;;;;;5.56;74.58;94548.63;4163090;28;20049;-56
2022/12/08 07:13:23;;;;;;;57.50;32.97;;;;;;;5.47;75.15;94545.88;4163942;28;20042;-55
2022/12/08 07:15:25;;;;;;;51.10;34.90;;;;;;;5.19;75.60;94552.59;4167238;28;20046;-53
2022/12/08 07:17:26;;;;;;;59.97;34.08;;;;;;;4.77;77.75;94560.41;4155457;28;20502;-52
2022/12/08 07:19:28;;;;;;;52.10;32.63;;;;;;;4.44;79.65;94554.47;4175707;28;20044;-55
2022/12/08 07:21:31;;;;;;;62.13;35.40;;;;;;;4.24;79.94;94552.69;4166508;28;20045;-56
2022/12/08 07:23:33;;;;;;;60.80;34.47;;;;;;;4.36;79.69;94559.44;4160473;28;20050;-57
2022/12/08 07:25:34;;;;;;;54.70;33.75;;;;;;;4.63;80.13;94560.75;4176581;28;20067;-57
2022/12/08 07:27:36;;;;;;;54.92;34.72;;;;;;;4.93;79.08;94565.19;4170193;28;20520;-49
2022/12/08 07:29:38;;;;;;;54.85;34.67;;;;;;;5.17;78.32;94571.84;4171905;28;20152;-53
2022/12/08 07:31:39;;;;;;;57.00;34.90;;;;;;;5.32;76.80;94571.38;4177124;28;20579;-53
2022/12/08 07:33:42;;;;;;;59.92;37.55;;;;;;;5.20;76.44;94575.00;4181063;28;20143;-53
2022/12/08 07:35:43;;;;;;;63.47;41.20;;;;;;;5.42;76.48;94573.19;4180481;28;20049;-59
2022/12/08 07:37:49;;;;;;;74.70;42.75;;;;;;;5.68;76.95;94573.56;4181405;28;20048;-52
2022/12/08 07:39:51;;;;;;;73.50;40.40;;;;;;;5.93;76.04;94567.03;4180888;28;20099;-53
2022/12/08 07:41:53;;;;;;;62.08;38.95;;;;;;;6.14;74.28;94565.19;4149093;28;20065;-52
2022/12/08 07:43:55;;;;;;;55.97;35.10;;;;;;;6.33;73.42;94574.81;4171348;28;20091;-52
2022/12/08 07:45:56;;;;;;;56.00;34.00;;;;;;;6.52;73.32;94568.78;4178288;28;20490;-51
2022/12/08 07:47:58;;;;;;;55.85;32.60;;;;;;;6.73;72.65;94562.59;4169451;28;20045;-54
2022/12/08 07:50:00;;;;;;;53.67;31.88;;;;;;;6.84;71.55;94557.25;4166207;28;20518;-52
2022/12/08 07:52:02;;;;;;;54.25;31.02;;;;;;;6.96;71.20;94557.91;4146303;28;20053;-50
2022/12/08 07:54:04;;;;;;;44.15;28.58;;;;;;;7.07;70.56;94562.13;4157665;28;20140;-53
2022/12/08 07:56:06;;;;;;;50.03;30.85;;;;;;;7.14;70.44;94564.03;4163123;28;20049;-55
2022/12/08 07:58:09;;;;;;;50.65;31.55;;;;;;;7.20;69.61;94554.81;4175147;28;20060;-54
2022/12/08 08:00:11;;;;;;;54.60;33.17;;;;;;;7.29;69.81;94556.59;4176810;28;20071;-53
2022/12/08 08:02:17;;;;;;;52.47;32.50;;;;;;;7.35;69.27;94555.19;4176529;28;20064;-54
2022/12/08 08:04:26;;;;;;;48.97;30.52;;;;;;;7.30;69.84;94563.44;4177035;28;20057;-52
2022/12/08 08:06:28;;;;;;;51.72;34.03;;;;;;;7.27;69.82;94571.53;4171878;28;20146;-53
2022/12/08 08:08:29;;;;;;;50.55;32.47;;;;;;;7.24;70.10;94565.78;4167567;28;20041;-52
2022/12/08 08:10:31;;;;;;;64.20;35.45;;;;;;;7.19;70.25;94553.19;4176737;28;20057;-50
2022/12/08 08:12:33;;;;;;;54.95;35.42;;;;;;;7.11;69.96;94558.28;4176786;28;20128;-55
2022/12/08 08:14:34;;;;;;;61.30;37.10;;;;;;;7.06;70.50;94560.50;4163714;28;20053;-53
2022/12/08 08:16:36;;;;;;;62.13;36.40;;;;;;;7.05;70.54;94558.84;4177330;28;20045;-53
2022/12/08 08:18:39;;;;;;;58.60;36.53;;;;;;;7.02;70.70;94559.13;4177318;28;20075;-55
2022/12/08 08:20:40;;;;;;;58.75;33.90;;;;;;;7.03;70.87;94551.16;4177019;28;20049;-52
2022/12/08 08:22:44;;;;;;;53.25;32.33;;;;;;;7.10;70.84;94561.88;4177068;28;20080;-51
2022/12/08 08:24:46;;;;;;;63.00;33.13;;;;;;;7.14;70.41;94564.03;4170179;28;20072;-50
2022/12/08 08:26:47;;;;;;;54.67;32.13;;;;;;;7.20;70.68;94565.25;4173496;28;20140;-59
2022/12/08 08:28:49;;;;;;;57.22;32.70;;;;;;;7.29;70.52;94567.00;4176713;28;20116;-52
2022/12/08 08:30:51;;;;;;;51.10;31.63;;;;;;;7.32;70.35;94571.94;4173134;28;20496;-53
2022/12/08 08:32:52;;;;;;;48.15;29.05;;;;;;;7.30;69.65;94566.03;4170105;28;20057;-53
2022/12/08 08:34:54;;;;;;;49.90;31.67;;;;;;;7.34;69.73;94566.59;4177546;28;20045;-53
2022/12/08 08:36:56;;;;;;;51.45;29.63;;;;;;;7.35;69.90;94570.81;4175105;28;20092;-55
2022/12/08 08:38:57;;;;;;;51.85;30.60;;;;;;;7.37;69.33;94564.50;4176608;28;20562;-55
2022/12/08 08:41:01;;;;;;;55.33;32.88;;;;;;;7.41;69.58;94564.22;4170638;28;20715;-51
2022/12/08 08:43:05;;;;;;;52.30;30.75;;;;;;;7.42;69.91;94552.81;4169130;28;20085;-49
2022/12/08 08:45:07;;;;;;;45.30;30.23;;;;;;;7.41;70.03;94559.00;4176567;28;20060;-53
2022/12/08 08:47:08;;;;;;;56.00;31.85;;;;;;;7.41;69.84;94559.00;4177330;28;20053;-52
2022/12/08 08:49:10;;;;;;;56.03;33.22;;;;;;;7.46;69.82;94556.78;4172454;28;20079;-53
2022/12/08 08:51:13;;;;;;;56.38;31.35;;;;;;;7.43;70.17;94551.88;4152955;28;20050;-53
2022/12/08 08:53:14;;;;;;;56.70;32.63;;;;;;;7.44;69.89;94550.91;4166804;28;20049;-53
2022/12/08 08:55:16;;;;;;;60.22;34.15;;;;;;;7.50;70.38;94543.31;4153369;28;20179;-53
2022/12/08 08:57:18;;;;;;;55.38;32.13;;;;;;;7.52;69.75;94551.00;4173886;28;20072;-51
2022/12/08 08:59:26;;;;;;;56.65;32.00;;;;;;;7.58;69.84;94546.03;4155571;28;20050;-52
2022/12/08 09:01:28;;;;;;;55.50;30.90;;;;;;;7.35;69.37;94539.53;4165784;28;20056;-52
2022/12/08 09:03:30;;;;;;;51.67;33.28;;;;;;;7.21;70.87;94548.66;4163971;28;20115;-51
2022/12/08 09:05:32;;;;;;;51.75;31.55;;;;;;;7.28;71.09;94549.72;4153803;28;20058;-51
2022/12/08 09:07:34;;;;;;;54.53;32.13;;;;;;;7.39;71.13;94546.94;4160697;28;20492;-50
2022/12/08 09:09:36;;;;;;;56.20;31.15;;;;;;;7.53;71.03;94550.06;4159825;28;20091;-53
2022/12/08 09:11:37;;;;;;;55.35;30.88;;;;;;;7.62;70.64;94538.75;4153940;28;20064;-54
2022/12/08 09:13:39;;;;;;;52.33;29.05;;;;;;;7.70;69.66;94531.03;4164303;28;20072;-55
2022/12/08 09:15:41;;;;;;;45.97;26.50;;;;;;;7.69;69.53;94531.97;4165077;28;20080;-53
2022/12/08 09:17:43;;;;;;;52.22;29.95;;;;;;;7.73;69.97;94533.34;4164291;28;20252;-52
2022/12/08 09:19:45;;;;;;;47.60;28.67;;;;;;;7.84;70.19;94529.72;4151946;28;20045;-51
2022/12/08 09:21:46;;;;;;;49.83;27.77;;;;;;;7.82;69.24;94523.00;4165659;28;20108;-52
2022/12/08 09:23:58;;;;;;;46.10;27.48;;;;;;;7.83;69.68;94524.63;4160643;28;20057;-53
2022/12/08 09:25:59;;;;;;;47.78;25.70;;;;;;;7.90;69.17;94523.09;4166214;28;20071;-54
2022/12/08 09:28:01;;;;;;;47.88;26.42;;;;;;;7.98;69.85;94533.63;4160921;28;20052;-53
2022/12/08 09:30:03;;;;;;;39.95;24.60;;;;;;;8.09;68.99;94528.19;4155070;28;20057;-53
2022/12/08 09:32:05;;;;;;;42.35;24.08;;;;;;;8.20;69.09;94529.75;4162507;28;20105;-54
2022/12/08 09:34:07;;;;;;;40.92;23.05;;;;;;;8.25;68.64;94524.91;4157060;28;20097;-51
2022/12/08 09:36:10;;;;;;;43.03;24.92;;;;;;;8.30;68.73;94517.47;4136506;28;20053;-53
2022/12/08 09:38:12;;;;;;;42.00;24.05;;;;;;;8.39;68.25;94519.16;4161315;28;20060;-54
2022/12/08 09:40:16;;;;;;;41.72;26.33;;;;;;;8.57;68.32;94518.34;4160015;28;20049;-51
2022/12/08 09:42:41;;;;;;;44.72;24.75;;;;;;;8.69;67.20;94516.31;4148120;28;20045;-55
2022/12/08 09:45:03;;;;;;;43.78;25.63;;;;;;;8.77;67.18;94521.59;4174936;28;20500;-54